Terminal Aerodrome Forecast
Issued by NWS

Home | Current Version | Previous Version | Text Only | Print | Product List | Glossary On
Versions: 1 2 3 4 5 6 7 8 9 10 11 12 13 14 15 16 17 18 19 20 21 22
000
FTUS45 KSLC 272057 AAB
TAFEVW
TAF AMD
KEVW 272057Z 2721/2818 25018KT 3SM -SN BR FEW010 BKN035
     FM272300 27015G25KT P6SM VCSH SCT020 BKN050
     FM280300 24008KT P6SM SCT020 BKN060
     FM281600 23014G24KT P6SM SCT020 BKN060=

USA.gov is the U.S. government's official web portal to all federal, state and local government web resources and services.